CheckWX is a tool to help pilots better visualize weather data.  It is not intended as a substitute for an official pre-flight weather briefing.

16:18:43 UTC

EKRK TAF
Copenhagen Roskilde Airport
Copenhagen, Denmark
TAF EKRK 241420Z 2415/2424 13010KT CAVOK

Jun-24@
15:00 UTC

Jun-24 @ 15:00 UTC

Jun-25@
00:00 UTC

Jun-25 @ 00:00 UTC

TAF EKRK 241420Z 2415/2424 13010KT CAVOK
Wind
  • 130° at 10 KTS
Conditions
No significant weather
Cloud Levels
  • No significant clouds